sensor_id;sensor_type;location;lat;lon;timestamp;noise_LAeq;noise_LA_min;noise_LA_max;noise_LA01;noise_LA95
69615;Laerm;56821;52.486;4.680;2022-09-21T00:00:02;32.92;30.51;35.58;;
69615;Laerm;56821;52.486;4.680;2022-09-21T00:00:12;35.49;30.84;40.31;;
69615;Laerm;56821;52.486;4.680;2022-09-21T00:00:23;39.91;35.47;42.19;;
69615;Laerm;56821;52.486;4.680;2022-09-21T00:00:35;35.77;32.58;38.20;;
69615;Laerm;56821;52.486;4.680;2022-09-21T00:00:46;32.91;31.06;35.94;;
69615;Laerm;56821;52.486;4.680;2022-09-21T00:01:19;34.49;31.39;38.62;;
69615;Laerm;56821;52.486;4.680;2022-09-21T00:01:30;35.01;30.72;37.21;;
69615;Laerm;56821;52.486;4.680;2022-09-21T00:01:40;33.52;31.49;36.27;;
69615;Laerm;56821;52.486;4.680;2022-09-21T00:01:51;37.12;34.87;39.06;;
69615;Laerm;56821;52.486;4.680;2022-09-21T00:02:01;37.03;34.90;39.54;;
69615;Laerm;56821;52.486;4.680;2022-09-21T00:02:11;37.75;34.43;41.91;;
69615;Laerm;56821;52.486;4.680;2022-09-21T00:02:22;33.35;31.66;39.45;;
69615;Laerm;56821;52.486;4.680;2022-09-21T00:02:32;34.35;31.53;36.25;;
69615;Laerm;56821;52.486;4.680;2022-09-21T00:02:43;34.25;30.19;38.85;;
69615;Laerm;56821;52.486;4.680;2022-09-21T00:02:56;35.36;31.08;40.08;;
69615;Laerm;56821;52.486;4.680;2022-09-21T00:03:07;31.29;28.64;34.64;;
69615;Laerm;56821;52.486;4.680;2022-09-21T00:03:17;29.46;28.14;33.20;;
69615;Laerm;56821;52.486;4.680;2022-09-21T00:03:27;29.33;27.86;32.99;;
69615;Laerm;56821;52.486;4.680;2022-09-21T00:03:38;29.26;27.95;31.31;;
69615;Laerm;56821;52.486;4.680;2022-09-21T00:03:51;33.23;28.74;38.15;;
69615;Laerm;56821;52.486;4.680;2022-09-21T00:04:02;36.90;32.15;39.95;;
69615;Laerm;56821;52.486;4.680;2022-09-21T00:04:13;32.75;31.02;35.03;;
69615;Laerm;56821;52.486;4.680;2022-09-21T00:04:23;30.45;29.11;32.95;;
69615;Laerm;56821;52.486;4.680;2022-09-21T00:04:33;29.48;28.29;31.85;;
69615;Laerm;56821;52.486;4.680;2022-09-21T00:04:44;29.45;27.91;32.84;;
69615;Laerm;56821;52.486;4.680;2022-09-21T00:04:54;29.66;28.20;32.96;;
69615;Laerm;56821;52.486;4.680;2022-09-21T00:05:04;30.20;28.49;32.45;;
69615;Laerm;56821;52.486;4.680;2022-09-21T00:05:15;30.62;29.12;32.33;;
69615;Laerm;56821;52.486;4.680;2022-09-21T00:05:26;31.17;29.19;35.28;;
69615;Laerm;56821;52.486;4.680;2022-09-21T00:05:36;34.90;30.71;38.01;;
69615;Laerm;56821;52.486;4.680;2022-09-21T00:05:46;36.84;33.89;39.05;;
69615;Laerm;56821;52.486;4.680;2022-09-21T00:06:06;38.68;31.80;46.93;;
69615;Laerm;56821;52.486;4.680;2022-09-21T00:06:17;35.19;32.04;38.48;;
69615;Laerm;56821;52.486;4.680;2022-09-21T00:06:29;34.88;33.00;37.25;;
69615;Laerm;56821;52.486;4.680;2022-09-21T00:06:39;33.42;30.05;36.70;;
69615;Laerm;56821;52.486;4.680;2022-09-21T00:06:50;31.57;28.48;34.95;;
69615;Laerm;56821;52.486;4.680;2022-09-21T00:07:00;30.59;28.74;33.20;;
69615;Laerm;56821;52.486;4.680;2022-09-21T00:07:10;30.46;27.89;36.77;;
69615;Laerm;56821;52.486;4.680;2022-09-21T00:07:21;30.35;28.64;33.80;;
69615;Laerm;56821;52.486;4.680;2022-09-21T00:07:31;30.37;28.86;32.50;;
69615;Laerm;56821;52.486;4.680;2022-09-21T00:07:41;29.73;27.97;31.72;;
69615;Laerm;56821;52.486;4.680;2022-09-21T00:07:51;29.92;28.56;32.38;;
69615;Laerm;56821;52.486;4.680;2022-09-21T00:08:02;29.92;28.39;31.99;;
69615;Laerm;56821;52.486;4.680;2022-09-21T00:08:14;29.59;28.20;32.46;;
69615;Laerm;56821;52.486;4.680;2022-09-21T00:08:24;30.19;28.33;32.17;;
69615;Laerm;56821;52.486;4.680;2022-09-21T00:08:34;31.14;28.91;33.41;;
69615;Laerm;56821;52.486;4.680;2022-09-21T00:08:45;30.62;29.13;32.72;;
69615;Laerm;56821;52.486;4.680;2022-09-21T00:08:56;30.71;29.11;33.14;;
69615;Laerm;56821;52.486;4.680;2022-09-21T00:09:06;30.59;28.91;33.86;;
69615;Laerm;56821;52.486;4.680;2022-09-21T00:09:18;30.15;28.50;37.56;;
69615;Laerm;56821;52.486;4.680;2022-09-21T00:09:28;31.28;29.53;33.73;;
69615;Laerm;56821;52.486;4.680;2022-09-21T00:09:38;31.42;29.47;33.77;;
69615;Laerm;56821;52.486;4.680;2022-09-21T00:09:49;32.27;30.69;34.54;;
69615;Laerm;56821;52.486;4.680;2022-09-21T00:09:59;31.07;29.33;33.21;;
69615;Laerm;56821;52.486;4.680;2022-09-21T00:10:09;30.67;28.78;34.66;;
69615;Laerm;56821;52.486;4.680;2022-09-21T00:10:20;30.92;28.73;33.63;;
69615;Laerm;56821;52.486;4.680;2022-09-21T00:10:30;29.15;27.71;31.47;;
69615;Laerm;56821;52.486;4.680;2022-09-21T00:10:41;29.23;27.59;32.17;;
69615;Laerm;56821;52.486;4.680;2022-09-21T00:10:51;29.33;27.80;31.70;;
69615;Laerm;56821;52.486;4.680;2022-09-21T00:11:01;29.42;28.22;31.74;;
69615;Laerm;56821;52.486;4.680;2022-09-21T00:11:13;32.05;28.24;38.31;;
69615;Laerm;56821;52.486;4.680;2022-09-21T00:11:26;30.88;28.68;35.32;;
69615;Laerm;56821;52.486;4.680;2022-09-21T00:11:36;30.32;28.74;34.36;;
69615;Laerm;56821;52.486;4.680;2022-09-21T00:11:46;29.78;28.08;33.23;;
69615;Laerm;56821;52.486;4.680;2022-09-21T00:11:57;29.59;27.87;32.19;;
69615;Laerm;56821;52.486;4.680;2022-09-21T00:12:07;29.39;27.97;33.37;;
69615;Laerm;56821;52.486;4.680;2022-09-21T00:12:18;29.32;28.15;32.03;;
69615;Laerm;56821;52.486;4.680;2022-09-21T00:12:29;30.42;27.86;35.63;;
69615;Laerm;56821;52.486;4.680;2022-09-21T00:12:40;29.68;27.70;32.67;;
69615;Laerm;56821;52.486;4.680;2022-09-21T00:12:50;29.20;27.35;31.32;;
69615;Laerm;56821;52.486;4.680;2022-09-21T00:13:00;29.36;27.66;34.62;;
69615;Laerm;56821;52.486;4.680;2022-09-21T00:13:14;29.60;27.74;31.81;;
69615;Laerm;56821;52.486;4.680;2022-09-21T00:13:26;29.59;28.04;32.82;;
69615;Laerm;56821;52.486;4.680;2022-09-21T00:13:37;29.63;28.01;33.78;;
69615;Laerm;56821;52.486;4.680;2022-09-21T00:13:50;29.27;27.77;33.09;;
69615;Laerm;56821;52.486;4.680;2022-09-21T00:14:11;28.92;27.72;31.44;;
69615;Laerm;56821;52.486;4.680;2022-09-21T00:14:22;29.65;28.08;33.72;;
69615;Laerm;56821;52.486;4.680;2022-09-21T00:14:33;30.24;28.51;33.61;;
69615;Laerm;56821;52.486;4.680;2022-09-21T00:14:43;30.87;29.28;33.30;;
69615;Laerm;56821;52.486;4.680;2022-09-21T00:14:53;30.30;28.84;32.23;;
69615;Laerm;56821;52.486;4.680;2022-09-21T00:15:06;30.38;28.64;34.02;;
69615;Laerm;56821;52.486;4.680;2022-09-21T00:15:17;31.62;29.15;35.30;;
69615;Laerm;56821;52.486;4.680;2022-09-21T00:15:28;32.94;29.61;37.06;;
69615;Laerm;56821;52.486;4.680;2022-09-21T00:15:38;34.97;32.78;37.10;;
69615;Laerm;56821;52.486;4.680;2022-09-21T00:15:49;38.78;35.18;41.66;;
69615;Laerm;56821;52.486;4.680;2022-09-21T00:16:00;38.01;35.25;40.42;;
69615;Laerm;56821;52.486;4.680;2022-09-21T00:16:10;36.33;33.02;40.31;;
69615;Laerm;56821;52.486;4.680;2022-09-21T00:16:20;36.60;34.71;38.40;;
69615;Laerm;56821;52.486;4.680;2022-09-21T00:16:31;33.65;30.97;36.88;;
69615;Laerm;56821;52.486;4.680;2022-09-21T00:16:41;32.83;30.99;35.82;;
69615;Laerm;56821;52.486;4.680;2022-09-21T00:16:52;32.60;30.54;34.70;;
69615;Laerm;56821;52.486;4.680;2022-09-21T00:17:03;34.65;31.36;37.79;;
69615;Laerm;56821;52.486;4.680;2022-09-21T00:17:13;33.16;31.53;35.01;;
69615;Laerm;56821;52.486;4.680;2022-09-21T00:17:23;33.79;31.32;36.34;;
69615;Laerm;56821;52.486;4.680;2022-09-21T00:17:34;36.83;34.12;39.54;;
69615;Laerm;56821;52.486;4.680;2022-09-21T00:17:45;34.72;30.89;37.69;;
69615;Laerm;56821;52.486;4.680;2022-09-21T00:17:57;33.86;31.09;37.67;;
69615;Laerm;56821;52.486;4.680;2022-09-21T00:18:08;33.57;30.92;37.70;;
69615;Laerm;56821;52.486;4.680;2022-09-21T00:18:19;34.06;30.66;37.85;;
69615;Laerm;56821;52.486;4.680;2022-09-21T00:18:29;31.40;28.63;34.27;;
69615;Laerm;56821;52.486;4.680;2022-09-21T00:18:40;32.46;28.98;36.12;;
69615;Laerm;56821;52.486;4.680;2022-09-21T00:18:50;31.61;29.88;34.44;;
69615;Laerm;56821;52.486;4.680;2022-09-21T00:19:01;31.98;29.20;34.31;;
69615;Laerm;56821;52.486;4.680;2022-09-21T00:19:11;31.42;29.26;34.42;;
69615;Laerm;56821;52.486;4.680;2022-09-21T00:19:21;33.68;31.32;39.38;;
69615;Laerm;56821;52.486;4.680;2022-09-21T00:19:33;35.38;31.63;38.95;;
69615;Laerm;56821;52.486;4.680;2022-09-21T00:19:43;37.64;34.92;40.47;;
69615;Laerm;56821;52.486;4.680;2022-09-21T00:19:54;38.30;32.74;42.22;;
69615;Laerm;56821;52.486;4.680;2022-09-21T00:20:04;34.63;31.59;37.04;;
69615;Laerm;56821;52.486;4.680;2022-09-21T00:20:15;33.85;31.28;37.04;;
69615;Laerm;56821;52.486;4.680;2022-09-21T00:20:25;31.26;29.10;34.55;;
69615;Laerm;56821;52.486;4.680;2022-09-21T00:20:39;30.83;28.63;33.41;;
69615;Laerm;56821;52.486;4.680;2022-09-21T00:20:50;30.01;28.48;32.76;;
69615;Laerm;56821;52.486;4.680;2022-09-21T00:21:05;29.60;28.35;31.69;;
69615;Laerm;56821;52.486;4.680;2022-09-21T00:21:15;30.76;28.25;33.98;;
69615;Laerm;56821;52.486;4.680;2022-09-21T00:21:26;32.89;29.49;36.76;;
69615;Laerm;56821;52.486;4.680;2022-09-21T00:21:37;36.48;33.54;39.71;;
69615;Laerm;56821;52.486;4.680;2022-09-21T00:21:47;37.30;32.42;40.06;;
69615;Laerm;56821;52.486;4.680;2022-09-21T00:21:58;34.09;31.46;36.32;;
69615;Laerm;56821;52.486;4.680;2022-09-21T00:22:08;32.41;30.08;35.54;;
69615;Laerm;56821;52.486;4.680;2022-09-21T00:22:18;32.02;29.45;36.12;;
69615;Laerm;56821;52.486;4.680;2022-09-21T00:22:28;31.47;29.59;33.56;;
69615;Laerm;56821;52.486;4.680;2022-09-21T00:22:39;32.04;30.66;33.94;;
69615;Laerm;56821;52.486;4.680;2022-09-21T00:22:50;32.64;30.65;35.82;;
69615;Laerm;56821;52.486;4.680;2022-09-21T00:23:01;34.39;32.37;36.35;;
69615;Laerm;56821;52.486;4.680;2022-09-21T00:23:11;33.33;30.91;36.96;;
69615;Laerm;56821;52.486;4.680;2022-09-21T00:23:21;34.25;30.92;38.69;;
69615;Laerm;56821;52.486;4.680;2022-09-21T00:23:33;38.36;33.90;41.25;;
69615;Laerm;56821;52.486;4.680;2022-09-21T00:23:43;35.19;32.34;40.84;;
69615;Laerm;56821;52.486;4.680;2022-09-21T00:23:54;34.35;31.02;39.47;;
69615;Laerm;56821;52.486;4.680;2022-09-21T00:24:05;36.72;33.03;40.90;;
69615;Laerm;56821;52.486;4.680;2022-09-21T00:24:15;38.39;33.56;42.70;;
69615;Laerm;56821;52.486;4.680;2022-09-21T00:24:26;34.55;31.47;38.34;;
69615;Laerm;56821;52.486;4.680;2022-09-21T00:24:36;34.51;30.69;40.84;;
69615;Laerm;56821;52.486;4.680;2022-09-21T00:24:47;33.00;29.46;38.87;;
69615;Laerm;56821;52.486;4.680;2022-09-21T00:24:57;32.39;29.11;37.03;;
69615;Laerm;56821;52.486;4.680;2022-09-21T00:25:07;32.44;29.04;37.00;;
69615;Laerm;56821;52.486;4.680;2022-09-21T00:25:18;32.01;30.30;34.89;;
69615;Laerm;56821;52.486;4.680;2022-09-21T00:25:29;32.64;30.45;35.58;;
69615;Laerm;56821;52.486;4.680;2022-09-21T00:25:39;31.92;29.18;35.04;;
69615;Laerm;56821;52.486;4.680;2022-09-21T00:25:49;30.81;29.11;34.28;;
69615;Laerm;56821;52.486;4.680;2022-09-21T00:26:13;31.22;29.23;33.58;;
69615;Laerm;56821;52.486;4.680;2022-09-21T00:26:24;31.86;30.36;34.15;;
69615;Laerm;56821;52.486;4.680;2022-09-21T00:26:35;32.48;30.28;34.96;;
69615;Laerm;56821;52.486;4.680;2022-09-21T00:26:45;34.64;32.91;36.86;;
69615;Laerm;56821;52.486;4.680;2022-09-21T00:26:56;36.26;33.94;38.75;;
69615;Laerm;56821;52.486;4.680;2022-09-21T00:27:06;35.75;32.79;38.14;;
69615;Laerm;56821;52.486;4.680;2022-09-21T00:27:16;34.08;31.97;36.09;;
69615;Laerm;56821;52.486;4.680;2022-09-21T00:27:26;33.05;30.55;35.57;;
69615;Laerm;56821;52.486;4.680;2022-09-21T00:27:39;31.18;29.12;33.23;;
69615;Laerm;56821;52.486;4.680;2022-09-21T00:27:50;30.52;29.06;33.68;;
69615;Laerm;56821;52.486;4.680;2022-09-21T00:28:00;30.29;28.07;33.45;;
69615;Laerm;56821;52.486;4.680;2022-09-21T00:28:10;31.12;28.14;34.52;;
69615;Laerm;56821;52.486;4.680;2022-09-21T00:28:22;31.36;29.37;33.99;;
69615;Laerm;56821;52.486;4.680;2022-09-21T00:28:32;31.03;29.23;34.75;;
69615;Laerm;56821;52.486;4.680;2022-09-21T00:28:42;30.34;29.03;33.75;;
69615;Laerm;56821;52.486;4.680;2022-09-21T00:28:54;29.90;28.47;32.02;;
69615;Laerm;56821;52.486;4.680;2022-09-21T00:29:05;32.00;28.89;35.34;;
69615;Laerm;56821;52.486;4.680;2022-09-21T00:29:15;31.89;29.92;33.89;;
69615;Laerm;56821;52.486;4.680;2022-09-21T00:29:26;31.58;28.66;37.55;;
69615;Laerm;56821;52.486;4.680;2022-09-21T00:29:36;31.72;29.51;34.91;;
69615;Laerm;56821;52.486;4.680;2022-09-21T00:29:46;31.19;29.49;34.23;;
69615;Laerm;56821;52.486;4.680;2022-09-21T00:29:58;34.29;30.43;37.17;;
69615;Laerm;56821;52.486;4.680;2022-09-21T00:30:11;33.91;30.18;37.12;;
69615;Laerm;56821;52.486;4.680;2022-09-21T00:30:21;33.14;29.76;36.67;;
69615;Laerm;56821;52.486;4.680;2022-09-21T00:30:31;36.38;32.10;42.38;;
69615;Laerm;56821;52.486;4.680;2022-09-21T00:30:42;34.30;30.52;41.57;;
69615;Laerm;56821;52.486;4.680;2022-09-21T00:30:52;33.36;31.25;35.87;;
69615;Laerm;56821;52.486;4.680;2022-09-21T00:31:03;32.72;29.70;36.00;;
69615;Laerm;56821;52.486;4.680;2022-09-21T00:31:14;30.38;28.96;34.00;;
69615;Laerm;56821;52.486;4.680;2022-09-21T00:31:26;30.83;28.75;34.56;;
69615;Laerm;56821;52.486;4.680;2022-09-21T00:31:37;31.38;29.49;34.65;;
69615;Laerm;56821;52.486;4.680;2022-09-21T00:31:47;30.21;28.06;32.46;;
69615;Laerm;56821;52.486;4.680;2022-09-21T00:31:57;30.31;28.78;32.78;;
69615;Laerm;56821;52.486;4.680;2022-09-21T00:32:07;30.80;28.83;33.95;;
69615;Laerm;56821;52.486;4.680;2022-09-21T00:32:18;30.61;28.88;33.73;;
69615;Laerm;56821;52.486;4.680;2022-09-21T00:32:29;29.53;27.89;31.96;;
69615;Laerm;56821;52.486;4.680;2022-09-21T00:32:42;29.74;28.58;31.89;;
69615;Laerm;56821;52.486;4.680;2022-09-21T00:32:53;31.25;29.19;33.72;;
69615;Laerm;56821;52.486;4.680;2022-09-21T00:33:03;31.94;30.13;35.75;;
69615;Laerm;56821;52.486;4.680;2022-09-21T00:33:13;30.84;29.00;33.51;;
69615;Laerm;56821;52.486;4.680;2022-09-21T00:33:24;30.30;28.92;32.92;;
69615;Laerm;56821;52.486;4.680;2022-09-21T00:33:34;30.12;28.72;32.86;;
69615;Laerm;56821;52.486;4.680;2022-09-21T00:33:45;29.93;28.38;31.33;;
69615;Laerm;56821;52.486;4.680;2022-09-21T00:33:55;30.33;28.86;33.17;;
69615;Laerm;56821;52.486;4.680;2022-09-21T00:34:06;30.90;28.90;33.25;;
69615;Laerm;56821;52.486;4.680;2022-09-21T00:34:17;32.12;30.19;34.90;;
69615;Laerm;56821;52.486;4.680;2022-09-21T00:34:27;31.56;29.43;34.07;;
69615;Laerm;56821;52.486;4.680;2022-09-21T00:34:38;31.09;29.41;33.65;;
69615;Laerm;56821;52.486;4.680;2022-09-21T00:34:48;32.41;30.48;34.31;;
69615;Laerm;56821;52.486;4.680;2022-09-21T00:34:58;33.63;30.87;36.07;;
69615;Laerm;56821;52.486;4.680;2022-09-21T00:35:09;33.96;31.75;36.16;;
69615;Laerm;56821;52.486;4.680;2022-09-21T00:35:19;34.52;31.97;36.79;;
69615;Laerm;56821;52.486;4.680;2022-09-21T00:35:29;31.78;29.51;34.29;;
69615;Laerm;56821;52.486;4.680;2022-09-21T00:35:40;30.44;28.64;34.94;;
69615;Laerm;56821;52.486;4.680;2022-09-21T00:35:50;30.07;28.07;33.42;;
69615;Laerm;56821;52.486;4.680;2022-09-21T00:36:01;30.90;28.81;32.80;;
69615;Laerm;56821;52.486;4.680;2022-09-21T00:36:16;34.18;31.05;37.64;;
69615;Laerm;56821;52.486;4.680;2022-09-21T00:36:26;36.55;30.67;39.29;;
69615;Laerm;56821;52.486;4.680;2022-09-21T00:36:37;32.77;30.63;35.73;;
69615;Laerm;56821;52.486;4.680;2022-09-21T00:36:47;33.11;31.11;36.90;;
69615;Laerm;56821;52.486;4.680;2022-09-21T00:36:57;31.62;29.64;34.51;;
69615;Laerm;56821;52.486;4.680;2022-09-21T00:37:08;30.48;29.01;32.53;;
69615;Laerm;56821;52.486;4.680;2022-09-21T00:37:18;30.60;28.98;32.28;;
69615;Laerm;56821;52.486;4.680;2022-09-21T00:37:29;30.83;29.37;32.59;;
69615;Laerm;56821;52.486;4.680;2022-09-21T00:37:40;30.86;29.24;33.54;;
69615;Laerm;56821;52.486;4.680;2022-09-21T00:37:50;30.17;28.43;31.84;;
69615;Laerm;56821;52.486;4.680;2022-09-21T00:38:01;29.90;28.16;36.69;;
69615;Laerm;56821;52.486;4.680;2022-09-21T00:38:11;30.32;28.54;37.10;;
69615;Laerm;56821;52.486;4.680;2022-09-21T00:38:22;33.85;30.05;37.91;;
69615;Laerm;56821;52.486;4.680;2022-09-21T00:38:32;33.74;30.83;36.11;;
69615;Laerm;56821;52.486;4.680;2022-09-21T00:38:44;33.87;32.17;36.46;;
69615;Laerm;56821;52.486;4.680;2022-09-21T00:38:56;32.58;30.48;35.65;;
69615;Laerm;56821;52.486;4.680;2022-09-21T00:39:08;33.17;30.66;35.46;;
69615;Laerm;56821;52.486;4.680;2022-09-21T00:39:18;33.22;30.63;35.78;;
69615;Laerm;56821;52.486;4.680;2022-09-21T00:39:28;35.65;32.90;38.08;;
69615;Laerm;56821;52.486;4.680;2022-09-21T00:39:39;36.10;33.50;38.24;;
69615;Laerm;56821;52.486;4.680;2022-09-21T00:39:49;35.22;33.47;36.84;;
69615;Laerm;56821;52.486;4.680;2022-09-21T00:39:59;33.19;30.92;37.08;;
69615;Laerm;56821;52.486;4.680;2022-09-21T00:40:10;34.76;31.08;37.15;;
69615;Laerm;56821;52.486;4.680;2022-09-21T00:40:21;35.25;33.16;37.79;;
69615;Laerm;56821;52.486;4.680;2022-09-21T00:40:31;33.77;31.22;36.88;;
69615;Laerm;56821;52.486;4.680;2022-09-21T00:40:41;34.19;31.26;37.52;;
69615;Laerm;56821;52.486;4.680;2022-09-21T00:40:51;33.74;31.40;35.99;;
69615;Laerm;56821;52.486;4.680;2022-09-21T00:41:02;31.48;29.48;33.99;;
69615;Laerm;56821;52.486;4.680;2022-09-21T00:41:13;30.78;29.11;33.08;;
69615;Laerm;56821;52.486;4.680;2022-09-21T00:41:23;30.28;28.53;33.52;;
69615;Laerm;56821;52.486;4.680;2022-09-21T00:41:34;30.06;28.31;32.56;;
69615;Laerm;56821;52.486;4.680;2022-09-21T00:41:44;30.87;29.33;33.49;;
69615;Laerm;56821;52.486;4.680;2022-09-21T00:41:54;31.53;29.68;33.48;;
69615;Laerm;56821;52.486;4.680;2022-09-21T00:42:27;32.57;29.97;35.70;;
69615;Laerm;56821;52.486;4.680;2022-09-21T00:42:35;30.84;28.28;34.25;;
69615;Laerm;56821;52.486;4.680;2022-09-21T00:42:46;34.61;31.64;37.95;;
69615;Laerm;56821;52.486;4.680;2022-09-21T00:43:15;37.92;33.77;40.78;;
69615;Laerm;56821;52.486;4.680;2022-09-21T00:43:25;36.39;32.06;44.99;;
69615;Laerm;56821;52.486;4.680;2022-09-21T00:43:37;37.56;31.18;44.58;;
69615;Laerm;56821;52.486;4.680;2022-09-21T00:44:15;36.85;32.58;41.88;;
69615;Laerm;56821;52.486;4.680;2022-09-21T00:44:33;36.00;31.79;40.31;;
69615;Laerm;56821;52.486;4.680;2022-09-21T00:44:44;35.26;32.81;37.67;;
69615;Laerm;56821;52.486;4.680;2022-09-21T00:44:54;35.35;32.29;39.73;;
69615;Laerm;56821;52.486;4.680;2022-09-21T00:45:05;36.23;33.61;38.32;;
69615;Laerm;56821;52.486;4.680;2022-09-21T00:45:15;34.88;32.90;37.62;;
69615;Laerm;56821;52.486;4.680;2022-09-21T00:45:31;32.49;29.22;35.98;;
69615;Laerm;56821;52.486;4.680;2022-09-21T00:45:43;31.19;28.83;32.68;;
69615;Laerm;56821;52.486;4.680;2022-09-21T00:46:01;32.11;30.59;34.39;;
69615;Laerm;56821;52.486;4.680;2022-09-21T00:46:20;31.21;28.70;32.95;;
69615;Laerm;56821;52.486;4.680;2022-09-21T00:46:33;31.81;29.67;33.85;;
69615;Laerm;56821;52.486;4.680;2022-09-21T00:46:44;33.46;31.41;35.56;;
69615;Laerm;56821;52.486;4.680;2022-09-21T00:46:57;32.10;29.89;34.02;;
69615;Laerm;56821;52.486;4.680;2022-09-21T00:47:10;30.43;28.38;33.92;;
69615;Laerm;56821;52.486;4.680;2022-09-21T00:47:40;30.18;28.60;32.83;;
69615;Laerm;56821;52.486;4.680;2022-09-21T00:47:51;29.93;28.23;32.66;;
69615;Laerm;56821;52.486;4.680;2022-09-21T00:48:02;29.36;27.99;31.74;;
69615;Laerm;56821;52.486;4.680;2022-09-21T00:48:12;29.61;28.19;31.82;;
69615;Laerm;56821;52.486;4.680;2022-09-21T00:48:23;29.53;28.03;31.68;;
69615;Laerm;56821;52.486;4.680;2022-09-21T00:48:33;29.62;28.36;33.20;;
69615;Laerm;56821;52.486;4.680;2022-09-21T00:48:44;29.83;28.48;32.50;;
69615;Laerm;56821;52.486;4.680;2022-09-21T00:48:56;30.54;28.77;32.98;;
69615;Laerm;56821;52.486;4.680;2022-09-21T00:49:07;31.29;29.34;34.41;;
69615;Laerm;56821;52.486;4.680;2022-09-21T00:49:17;31.77;28.85;38.52;;
69615;Laerm;56821;52.486;4.680;2022-09-21T00:49:28;35.12;31.79;40.05;;
69615;Laerm;56821;52.486;4.680;2022-09-21T00:49:40;37.72;35.13;40.25;;
69615;Laerm;56821;52.486;4.680;2022-09-21T00:49:52;33.18;30.08;36.82;;
69615;Laerm;56821;52.486;4.680;2022-09-21T00:50:15;33.80;29.86;37.82;;
69615;Laerm;56821;52.486;4.680;2022-09-21T00:50:26;36.47;31.85;40.40;;
69615;Laerm;56821;52.486;4.680;2022-09-21T00:50:37;34.40;32.33;38.49;;
69615;Laerm;56821;52.486;4.680;2022-09-21T00:50:51;34.49;30.46;38.53;;
69615;Laerm;56821;52.486;4.680;2022-09-21T00:51:04;31.29;29.56;33.84;;
69615;Laerm;56821;52.486;4.680;2022-09-21T00:51:15;30.77;29.43;32.38;;
69615;Laerm;56821;52.486;4.680;2022-09-21T00:51:26;31.08;29.23;34.00;;
69615;Laerm;56821;52.486;4.680;2022-09-21T00:51:36;32.01;29.52;34.19;;
69615;Laerm;56821;52.486;4.680;2022-09-21T00:51:47;31.11;29.50;33.22;;
69615;Laerm;56821;52.486;4.680;2022-09-21T00:51:58;30.35;28.98;32.38;;
69615;Laerm;56821;52.486;4.680;2022-09-21T00:52:11;33.42;29.09;38.10;;
69615;Laerm;56821;52.486;4.680;2022-09-21T00:52:24;35.21;32.21;38.14;;
69615;Laerm;56821;52.486;4.680;2022-09-21T00:52:39;33.91;31.25;36.96;;
69615;Laerm;56821;52.486;4.680;2022-09-21T00:52:51;34.01;31.43;38.77;;
69615;Laerm;56821;52.486;4.680;2022-09-21T00:53:02;34.99;32.39;37.27;;
69615;Laerm;56821;52.486;4.680;2022-09-21T00:53:13;33.52;31.14;35.53;;
69615;Laerm;56821;52.486;4.680;2022-09-21T00:53:25;30.97;29.39;34.54;;
69615;Laerm;56821;52.486;4.680;2022-09-21T00:53:36;31.22;29.37;33.82;;
69615;Laerm;56821;52.486;4.680;2022-09-21T00:53:47;30.85;28.77;32.38;;
69615;Laerm;56821;52.486;4.680;2022-09-21T00:54:03;30.13;28.37;33.66;;
69615;Laerm;56821;52.486;4.680;2022-09-21T00:54:18;30.45;28.79;32.47;;
69615;Laerm;56821;52.486;4.680;2022-09-21T00:55:17;34.45;28.47;40.09;;
69615;Laerm;56821;52.486;4.680;2022-09-21T00:55:39;35.18;30.31;52.13;;
69615;Laerm;56821;52.486;4.680;2022-09-21T00:55:51;33.15;30.19;36.39;;
69615;Laerm;56821;52.486;4.680;2022-09-21T00:56:04;34.47;32.68;36.49;;
69615;Laerm;56821;52.486;4.680;2022-09-21T00:56:14;33.98;31.56;36.21;;
69615;Laerm;56821;52.486;4.680;2022-09-21T00:56:25;33.08;30.71;35.54;;
69615;Laerm;56821;52.486;4.680;2022-09-21T00:56:35;32.12;30.12;34.90;;
69615;Laerm;56821;52.486;4.680;2022-09-21T00:56:46;32.44;29.91;36.43;;
69615;Laerm;56821;52.486;4.680;2022-09-21T00:56:56;35.45;32.55;39.83;;
69615;Laerm;56821;52.486;4.680;2022-09-21T00:57:12;38.81;33.96;42.21;;
69615;Laerm;56821;52.486;4.680;2022-09-21T00:57:23;35.73;33.13;38.54;;
69615;Laerm;56821;52.486;4.680;2022-09-21T00:57:34;33.25;30.69;35.60;;
69615;Laerm;56821;52.486;4.680;2022-09-21T00:57:45;31.10;29.44;33.42;;
69615;Laerm;56821;52.486;4.680;2022-09-21T00:57:58;31.03;28.97;35.18;;
69615;Laerm;56821;52.486;4.680;2022-09-21T00:58:10;30.75;28.98;33.12;;
69615;Laerm;56821;52.486;4.680;2022-09-21T00:58:33;31.35;28.86;34.04;;
69615;Laerm;56821;52.486;4.680;2022-09-21T00:58:47;33.58;30.50;37.53;;
69615;Laerm;56821;52.486;4.680;2022-09-21T00:58:59;37.85;35.16;40.30;;
69615;Laerm;56821;52.486;4.680;2022-09-21T00:59:09;36.51;33.96;39.27;;
69615;Laerm;56821;52.486;4.680;2022-09-21T00:59:22;32.85;30.93;37.51;;
69615;Laerm;56821;52.486;4.680;2022-09-21T00:59:33;32.66;30.61;36.71;;
69615;Laerm;56821;52.486;4.680;2022-09-21T00:59:44;34.82;32.13;37.10;;
69615;Laerm;56821;52.486;4.680;2022-09-21T00:59:55;35.89;31.10;38.67;;
69615;Laerm;56821;52.486;4.680;2022-09-21T01:00:08;33.24;30.98;36.17;;
69615;Laerm;56821;52.486;4.680;2022-09-21T01:00:18;32.56;29.59;35.69;;
69615;Laerm;56821;52.486;4.680;2022-09-21T01:00:29;30.03;28.30;34.68;;
69615;Laerm;56821;52.486;4.680;2022-09-21T01:00:39;29.90;28.44;31.85;;
69615;Laerm;56821;52.486;4.680;2022-09-21T01:00:49;32.11;29.36;34.83;;
69615;Laerm;56821;52.486;4.680;2022-09-21T01:01:01;34.00;32.37;36.49;;
69615;Laerm;56821;52.486;4.680;2022-09-21T01:01:11;33.81;31.43;37.35;;
69615;Laerm;56821;52.486;4.680;2022-09-21T01:01:24;35.33;30.91;39.12;;
69615;Laerm;56821;52.486;4.680;2022-09-21T01:01:34;36.44;33.88;39.85;;
69615;Laerm;56821;52.486;4.680;2022-09-21T01:01:47;36.26;32.45;40.80;;
69615;Laerm;56821;52.486;4.680;2022-09-21T01:01:58;34.41;31.06;40.53;;
69615;Laerm;56821;52.486;4.680;2022-09-21T01:02:08;33.80;30.63;38.90;;
69615;Laerm;56821;52.486;4.680;2022-09-21T01:02:18;33.70;30.46;39.21;;
69615;Laerm;56821;52.486;4.680;2022-09-21T01:02:29;33.22;30.79;36.34;;
69615;Laerm;56821;52.486;4.680;2022-09-21T01:02:39;35.12;31.38;38.78;;
69615;Laerm;56821;52.486;4.680;2022-09-21T01:02:50;36.62;32.98;41.39;;
69615;Laerm;56821;52.486;4.680;2022-09-21T01:03:00;37.26;34.99;40.14;;
69615;Laerm;56821;52.486;4.680;2022-09-21T01:03:11;36.06;33.67;44.06;;
69615;Laerm;56821;52.486;4.680;2022-09-21T01:03:22;32.60;30.20;35.13;;
69615;Laerm;56821;52.486;4.680;2022-09-21T01:03:32;30.86;29.03;33.25;;
69615;Laerm;56821;52.486;4.680;2022-09-21T01:03:43;29.96;28.63;31.92;;
69615;Laerm;56821;52.486;4.680;2022-09-21T01:03:54;30.61;28.79;32.84;;
69615;Laerm;56821;52.486;4.680;2022-09-21T01:04:06;30.05;28.34;33.38;;
69615;Laerm;56821;52.486;4.680;2022-09-21T01:04:17;30.52;29.01;32.28;;
69615;Laerm;56821;52.486;4.680;2022-09-21T01:04:28;31.01;29.24;33.85;;
69615;Laerm;56821;52.486;4.680;2022-09-21T01:04:38;30.55;28.75;32.27;;
69615;Laerm;56821;52.486;4.680;2022-09-21T01:04:49;31.59;28.76;34.32;;
69615;Laerm;56821;52.486;4.680;2022-09-21T01:05:04;30.94;29.39;33.22;;
69615;Laerm;56821;52.486;4.680;2022-09-21T01:05:14;30.17;27.99;32.98;;